Hveragerdi, Iceland
Current Conditions -  °F | °C
As of 8:00 AM on Wednesday 22 Oct 2014 (Local Time) from BIRK Reporting Station
Rain Showers Rain Showers  
Wind Chill: 25°   Ceiling: 3600
Heat Index: 36°   Visibility: 6mi
Dew Point: 28°   Wind: 17mph
Humidity: 75%   Direction: 60°ENE
Pressure: 29.15"   Gusts: 30mph
Location:  64°N, 21.2°W
Report Text: BIRK 220800Z 06015G26KT 9999 VCSH FEW032 BKN036 OVC044 02/M02 Q0987
Loading
Personal Weather Stations






























Interactive Weather Map
Tropical Storm Tracking
New forecast layout! Learn more

10-Day Weather Forecast

Advertisements
Track Severe Weather on mobile